Asheboro, North Carolina
Current Conditions -  °F | °C
As of 11:35 AM on Tuesday 21 Oct 2014 (Local Time) from KHBI Reporting Station
Clear Clear  
Wind Chill: 65°   Ceiling: Unl
Heat Index: 65°   Visibility: 10mi
Dew Point: 51°   Wind: 6mph
Humidity: 62%   Direction: 320°NW
Pressure: 29.96"   Gusts: NA
Location:  35.71°N, 79.81°W
Report Text: KHBI 211535Z AUTO 32005KT 10SM CLR 18/11 A2996 RMK AO2 T01810106
Loading
Personal Weather Stations






























Interactive Weather Map
Tropical Storm Tracking
New forecast layout! Learn more

10-Day Weather Forecast

Advertisements
Track Severe Weather on mobile